sensor_id;sensor_type;location;lat;lon;timestamp;pressure;altitude;pressure_sealevel;temperature;humidity
70011;BME280;59543;37.950;-122.338;2022-09-12T00:02:24;101380.91;;;24.19;50.71
70011;BME280;59543;37.950;-122.338;2022-09-12T00:04:51;101372.22;;;24.48;50.63
70011;BME280;59543;37.950;-122.338;2022-09-12T00:07:37;101387.56;;;23.67;52.45
70011;BME280;59543;37.950;-122.338;2022-09-12T00:10:03;101379.16;;;23.62;52.72
70011;BME280;59543;37.950;-122.338;2022-09-12T00:12:29;101387.41;;;23.17;52.58
70011;BME280;59543;37.950;-122.338;2022-09-12T00:14:56;101385.91;;;23.14;53.69
70011;BME280;59543;37.950;-122.338;2022-09-12T00:17:22;101383.78;;;23.23;54.75
70011;BME280;59543;37.950;-122.338;2022-09-12T00:19:48;101384.78;;;23.35;55.03
70011;BME280;59543;37.950;-122.338;2022-09-12T00:22:14;101387.19;;;23.57;54.48
70011;BME280;59543;37.950;-122.338;2022-09-12T00:24:40;101383.41;;;23.06;55.48
70011;BME280;59543;37.950;-122.338;2022-09-12T00:27:06;101385.31;;;22.92;54.75
70011;BME280;59543;37.950;-122.338;2022-09-12T00:29:33;101379.63;;;22.87;56.30
70011;BME280;59543;37.950;-122.338;2022-09-12T00:31:59;101386.41;;;22.71;55.69
70011;BME280;59543;37.950;-122.338;2022-09-12T00:34:25;101381.34;;;22.81;55.59
70011;BME280;59543;37.950;-122.338;2022-09-12T00:36:51;101384.97;;;22.69;56.08
70011;BME280;59543;37.950;-122.338;2022-09-12T00:39:18;101380.25;;;22.89;56.90
70011;BME280;59543;37.950;-122.338;2022-09-12T00:41:44;101381.94;;;23.03;56.23
70011;BME280;59543;37.950;-122.338;2022-09-12T00:46:56;101381.72;;;23.05;55.18
70011;BME280;59543;37.950;-122.338;2022-09-12T00:52:15;101377.75;;;22.94;55.72
70011;BME280;59543;37.950;-122.338;2022-09-12T00:54:51;101371.81;;;22.91;56.69
70011;BME280;59543;37.950;-122.338;2022-09-12T00:57:21;101379.19;;;23.03;57.37
70011;BME280;59543;37.950;-122.338;2022-09-12T00:59:53;101369.75;;;22.66;56.94
70011;BME280;59543;37.950;-122.338;2022-09-12T01:02:22;101372.94;;;22.50;56.49
70011;BME280;59543;37.950;-122.338;2022-09-12T01:04:48;101376.94;;;22.60;57.56
70011;BME280;59543;37.950;-122.338;2022-09-12T01:07:16;101379.47;;;22.62;56.89
70011;BME280;59543;37.950;-122.338;2022-09-12T01:09:43;101377.38;;;22.51;56.79
70011;BME280;59543;37.950;-122.338;2022-09-12T01:12:12;101385.81;;;22.36;57.45
70011;BME280;59543;37.950;-122.338;2022-09-12T01:14:39;101379.25;;;22.44;56.98
70011;BME280;59543;37.950;-122.338;2022-09-12T01:17:05;101384.94;;;22.09;57.30
70011;BME280;59543;37.950;-122.338;2022-09-12T01:31:05;101385.75;;;21.96;57.79
70011;BME280;59543;37.950;-122.338;2022-09-12T01:36:32;101394.75;;;21.63;57.57
70011;BME280;59543;37.950;-122.338;2022-09-12T01:39:05;101394.47;;;21.45;59.58
70011;BME280;59543;37.950;-122.338;2022-09-12T01:44:47;101389.41;;;21.42;60.28
70011;BME280;59543;37.950;-122.338;2022-09-12T01:47:24;101391.19;;;21.21;61.13
70011;BME280;59543;37.950;-122.338;2022-09-12T01:50:09;101389.34;;;21.35;60.69
70011;BME280;59543;37.950;-122.338;2022-09-12T01:52:51;101391.22;;;21.28;60.76
70011;BME280;59543;37.950;-122.338;2022-09-12T01:58:03;101388.19;;;21.10;61.45
70011;BME280;59543;37.950;-122.338;2022-09-12T02:00:36;101394.44;;;20.97;61.49
70011;BME280;59543;37.950;-122.338;2022-09-12T02:03:10;101386.56;;;20.81;62.49
70011;BME280;59543;37.950;-122.338;2022-09-12T02:05:47;101386.00;;;20.92;62.37
70011;BME280;59543;37.950;-122.338;2022-09-12T02:08:23;101388.00;;;20.76;63.06
70011;BME280;59543;37.950;-122.338;2022-09-12T02:11:01;101389.50;;;20.79;62.94
70011;BME280;59543;37.950;-122.338;2022-09-12T02:13:37;101386.25;;;20.69;61.94
70011;BME280;59543;37.950;-122.338;2022-09-12T02:16:08;101395.31;;;20.69;61.55
70011;BME280;59543;37.950;-122.338;2022-09-12T02:18:44;101401.16;;;20.66;62.73
70011;BME280;59543;37.950;-122.338;2022-09-12T02:21:12;101401.56;;;20.63;63.32
70011;BME280;59543;37.950;-122.338;2022-09-12T02:23:42;101405.50;;;20.54;64.35
70011;BME280;59543;37.950;-122.338;2022-09-12T02:26:19;101409.63;;;20.22;64.67
70011;BME280;59543;37.950;-122.338;2022-09-12T02:28:46;101409.75;;;20.14;65.38
70011;BME280;59543;37.950;-122.338;2022-09-12T02:31:31;101412.09;;;20.17;64.93
70011;BME280;59543;37.950;-122.338;2022-09-12T02:39:28;101416.06;;;19.71;66.51
70011;BME280;59543;37.950;-122.338;2022-09-12T02:41:56;101411.16;;;19.52;67.32
70011;BME280;59543;37.950;-122.338;2022-09-12T02:44:26;101412.28;;;19.57;67.93
70011;BME280;59543;37.950;-122.338;2022-09-12T02:46:57;101413.97;;;19.58;67.97
70011;BME280;59543;37.950;-122.338;2022-09-12T02:49:26;101410.38;;;19.73;67.35
70011;BME280;59543;37.950;-122.338;2022-09-12T02:51:52;101411.88;;;19.75;67.09
70011;BME280;59543;37.950;-122.338;2022-09-12T02:54:20;101412.88;;;19.68;67.30
70011;BME280;59543;37.950;-122.338;2022-09-12T02:56:46;101412.88;;;19.68;67.37
70011;BME280;59543;37.950;-122.338;2022-09-12T02:59:17;101415.84;;;19.73;67.24
70011;BME280;59543;37.950;-122.338;2022-09-12T03:02:06;101406.91;;;19.49;67.34
70011;BME280;59543;37.950;-122.338;2022-09-12T03:18:40;101415.84;;;19.73;66.73
70011;BME280;59543;37.950;-122.338;2022-09-12T03:26:25;101422.72;;;19.54;66.82
70011;BME280;59543;37.950;-122.338;2022-09-12T03:28:53;101428.47;;;19.59;66.43
70011;BME280;59543;37.950;-122.338;2022-09-12T03:31:20;101428.38;;;19.67;66.02
70011;BME280;59543;37.950;-122.338;2022-09-12T03:33:47;101427.16;;;19.55;66.37
70011;BME280;59543;37.950;-122.338;2022-09-12T03:36:23;101434.03;;;19.51;66.90
70011;BME280;59543;37.950;-122.338;2022-09-12T03:38:50;101428.75;;;19.49;67.41
70011;BME280;59543;37.950;-122.338;2022-09-12T03:41:17;101430.91;;;19.54;67.65
70011;BME280;59543;37.950;-122.338;2022-09-12T03:43:44;101438.34;;;19.60;67.32
70011;BME280;59543;37.950;-122.338;2022-09-12T03:46:10;101433.56;;;19.47;67.60
70011;BME280;59543;37.950;-122.338;2022-09-12T03:48:38;101441.16;;;19.52;67.65
70011;BME280;59543;37.950;-122.338;2022-09-12T03:51:08;101442.69;;;19.39;68.10
70011;BME280;59543;37.950;-122.338;2022-09-12T03:53:34;101437.81;;;19.35;68.36
70011;BME280;59543;37.950;-122.338;2022-09-12T03:56:08;101444.88;;;19.44;67.89
70011;BME280;59543;37.950;-122.338;2022-09-12T03:58:36;101442.00;;;19.52;67.82
70011;BME280;59543;37.950;-122.338;2022-09-12T04:01:11;101438.81;;;19.49;67.15
70011;BME280;59543;37.950;-122.338;2022-09-12T04:03:39;101438.56;;;19.44;67.44
70011;BME280;59543;37.950;-122.338;2022-09-12T04:06:07;101445.91;;;19.28;68.34
70011;BME280;59543;37.950;-122.338;2022-09-12T04:08:35;101446.47;;;19.24;68.39
70011;BME280;59543;37.950;-122.338;2022-09-12T04:11:03;101444.88;;;19.29;68.36
70011;BME280;59543;37.950;-122.338;2022-09-12T04:13:29;101448.63;;;19.28;68.75
70011;BME280;59543;37.950;-122.338;2022-09-12T04:15:58;101446.66;;;19.37;68.57
70011;BME280;59543;37.950;-122.338;2022-09-12T04:18:26;101451.16;;;19.45;68.36
70011;BME280;59543;37.950;-122.338;2022-09-12T04:20:52;101447.22;;;19.32;68.26
70011;BME280;59543;37.950;-122.338;2022-09-12T04:23:18;101453.81;;;19.23;69.09
70011;BME280;59543;37.950;-122.338;2022-09-12T04:25:56;101448.53;;;19.22;68.92
70011;BME280;59543;37.950;-122.338;2022-09-12T04:28:22;101449.13;;;19.17;68.76
70011;BME280;59543;37.950;-122.338;2022-09-12T04:30:50;101449.00;;;18.81;70.23
70011;BME280;59543;37.950;-122.338;2022-09-12T04:33:17;101451.78;;;18.72;71.06
70011;BME280;59543;37.950;-122.338;2022-09-12T04:35:43;101449.88;;;18.96;70.53
70011;BME280;59543;37.950;-122.338;2022-09-12T04:38:10;101450.78;;;18.88;70.80
70011;BME280;59543;37.950;-122.338;2022-09-12T04:40:36;101445.34;;;18.88;71.20
70011;BME280;59543;37.950;-122.338;2022-09-12T04:43:03;101456.38;;;18.72;71.53
70011;BME280;59543;37.950;-122.338;2022-09-12T04:45:31;101454.47;;;18.81;71.54
70011;BME280;59543;37.950;-122.338;2022-09-12T04:47:57;101448.81;;;18.82;71.13
70011;BME280;59543;37.950;-122.338;2022-09-12T04:50:23;101446.47;;;18.41;72.77
70011;BME280;59543;37.950;-122.338;2022-09-12T04:52:51;101437.91;;;18.44;72.67
70011;BME280;59543;37.950;-122.338;2022-09-12T04:55:18;101442.31;;;18.45;72.95
70011;BME280;59543;37.950;-122.338;2022-09-12T04:57:44;101443.72;;;18.41;73.12
70011;BME280;59543;37.950;-122.338;2022-09-12T05:00:11;101441.88;;;18.57;72.55
70011;BME280;59543;37.950;-122.338;2022-09-12T05:02:41;101439.53;;;18.54;72.45
70011;BME280;59543;37.950;-122.338;2022-09-12T05:05:08;101439.28;;;18.40;72.66
70011;BME280;59543;37.950;-122.338;2022-09-12T05:07:35;101446.09;;;18.44;72.72
70011;BME280;59543;37.950;-122.338;2022-09-12T05:10:01;101441.38;;;18.38;73.11
70011;BME280;59543;37.950;-122.338;2022-09-12T05:12:29;101432.22;;;18.31;73.27
70011;BME280;59543;37.950;-122.338;2022-09-12T05:14:56;101439.03;;;18.35;73.40
70011;BME280;59543;37.950;-122.338;2022-09-12T05:17:22;101431.28;;;18.24;73.81
70011;BME280;59543;37.950;-122.338;2022-09-12T05:19:48;101434.47;;;18.27;73.92
70011;BME280;59543;37.950;-122.338;2022-09-12T05:22:17;101444.84;;;18.32;73.60
70011;BME280;59543;37.950;-122.338;2022-09-12T05:24:43;101435.00;;;18.23;73.95
70011;BME280;59543;37.950;-122.338;2022-09-12T05:27:09;101423.16;;;18.16;74.00
70011;BME280;59543;37.950;-122.338;2022-09-12T05:29:36;101427.34;;;18.03;74.55
70011;BME280;59543;37.950;-122.338;2022-09-12T05:32:02;101425.59;;;17.88;74.90
70011;BME280;59543;37.950;-122.338;2022-09-12T05:34:29;101416.50;;;17.95;74.86
70011;BME280;59543;37.950;-122.338;2022-09-12T05:36:55;101422.13;;;17.63;76.02
70011;BME280;59543;37.950;-122.338;2022-09-12T05:39:22;101416.75;;;17.54;76.28
70011;BME280;59543;37.950;-122.338;2022-09-12T05:41:49;101417.38;;;17.56;75.82
70011;BME280;59543;37.950;-122.338;2022-09-12T05:44:15;101416.28;;;17.74;75.21
70011;BME280;59543;37.950;-122.338;2022-09-12T05:46:43;101416.28;;;17.74;75.38
70011;BME280;59543;37.950;-122.338;2022-09-12T05:49:12;101423.16;;;17.62;76.39
70011;BME280;59543;37.950;-122.338;2022-09-12T05:51:41;101422.47;;;17.59;75.74
70011;BME280;59543;37.950;-122.338;2022-09-12T05:54:11;101421.50;;;17.52;76.29
70011;BME280;59543;37.950;-122.338;2022-09-12T05:56:40;101426.47;;;17.72;75.59
70011;BME280;59543;37.950;-122.338;2022-09-12T05:59:14;101420.19;;;17.48;75.90
70011;BME280;59543;37.950;-122.338;2022-09-12T06:01:41;101421.50;;;17.52;76.17
70011;BME280;59543;37.950;-122.338;2022-09-12T06:04:07;101421.34;;;17.54;76.19
70011;BME280;59543;37.950;-122.338;2022-09-12T06:06:42;101421.19;;;17.47;76.05
70011;BME280;59543;37.950;-122.338;2022-09-12T06:09:13;101421.72;;;17.43;76.53
70011;BME280;59543;37.950;-122.338;2022-09-12T06:11:40;101426.69;;;17.39;76.58
70011;BME280;59543;37.950;-122.338;2022-09-12T06:14:08;101413.44;;;17.36;76.96
70011;BME280;59543;37.950;-122.338;2022-09-12T06:16:35;101417.88;;;17.29;77.27
70011;BME280;59543;37.950;-122.338;2022-09-12T06:19:10;101414.44;;;17.35;77.23
70011;BME280;59543;37.950;-122.338;2022-09-12T06:21:37;101415.84;;;17.23;77.71
70011;BME280;59543;37.950;-122.338;2022-09-12T06:24:04;101420.19;;;17.09;78.95
70011;BME280;59543;37.950;-122.338;2022-09-12T06:26:32;101423.03;;;17.16;78.69
70011;BME280;59543;37.950;-122.338;2022-09-12T06:28:59;101418.81;;;17.05;78.52
70011;BME280;59543;37.950;-122.338;2022-09-12T06:31:34;101428.47;;;17.16;78.37
70011;BME280;59543;37.950;-122.338;2022-09-12T06:34:03;101418.59;;;17.14;78.19
70011;BME280;59543;37.950;-122.338;2022-09-12T06:36:33;101423.34;;;17.21;78.09
70011;BME280;59543;37.950;-122.338;2022-09-12T06:39:20;101416.22;;;17.20;78.05
70011;BME280;59543;37.950;-122.338;2022-09-12T06:41:48;101419.38;;;17.31;77.62
70011;BME280;59543;37.950;-122.338;2022-09-12T06:44:19;101421.75;;;17.34;77.25
70011;BME280;59543;37.950;-122.338;2022-09-12T06:46:46;101413.94;;;17.31;77.83
70011;BME280;59543;37.950;-122.338;2022-09-12T06:49:13;101423.50;;;17.27;78.24
70011;BME280;59543;37.950;-122.338;2022-09-12T06:51:40;101424.69;;;17.25;78.01
70011;BME280;59543;37.950;-122.338;2022-09-12T06:54:13;101426.88;;;17.29;76.99
70011;BME280;59543;37.950;-122.338;2022-09-12T06:56:40;101428.38;;;17.32;77.08
70011;BME280;59543;37.950;-122.338;2022-09-12T06:59:06;101433.72;;;17.17;77.47
70011;BME280;59543;37.950;-122.338;2022-09-12T07:01:33;101428.97;;;17.11;77.92
70011;BME280;59543;37.950;-122.338;2022-09-12T07:04:01;101432.38;;;17.21;77.64
70011;BME280;59543;37.950;-122.338;2022-09-12T07:06:31;101423.84;;;17.24;77.12
70011;BME280;59543;37.950;-122.338;2022-09-12T07:09:02;101421.66;;;17.20;77.35
70011;BME280;59543;37.950;-122.338;2022-09-12T07:11:31;101418.78;;;17.13;77.31
70011;BME280;59543;37.950;-122.338;2022-09-12T07:13:59;101422.34;;;17.13;77.06
70011;BME280;59543;37.950;-122.338;2022-09-12T07:16:26;101419.50;;;16.99;77.95
70011;BME280;59543;37.950;-122.338;2022-09-12T07:18:58;101420.19;;;17.09;77.55
70011;BME280;59543;37.950;-122.338;2022-09-12T07:21:25;101417.16;;;16.96;78.34
70011;BME280;59543;37.950;-122.338;2022-09-12T07:23:51;101417.63;;;17.07;77.92
70011;BME280;59543;37.950;-122.338;2022-09-12T07:26:20;101421.72;;;16.95;78.13
70011;BME280;59543;37.950;-122.338;2022-09-12T07:28:50;101419.03;;;16.87;78.41
70011;BME280;59543;37.950;-122.338;2022-09-12T07:31:22;101422.22;;;16.99;77.97
70011;BME280;59543;37.950;-122.338;2022-09-12T07:33:50;101407.59;;;17.00;77.67
70011;BME280;59543;37.950;-122.338;2022-09-12T07:36:18;101410.00;;;17.03;77.52
70011;BME280;59543;37.950;-122.338;2022-09-12T07:38:45;101404.16;;;17.14;76.97
70011;BME280;59543;37.950;-122.338;2022-09-12T07:41:13;101399.13;;;17.03;77.18
70011;BME280;59543;37.950;-122.338;2022-09-12T07:43:40;101404.72;;;17.09;77.24
70011;BME280;59543;37.950;-122.338;2022-09-12T07:46:07;101413.03;;;17.08;77.30
70011;BME280;59543;37.950;-122.338;2022-09-12T07:48:33;101404.56;;;17.03;77.26
70011;BME280;59543;37.950;-122.338;2022-09-12T07:51:02;101403.41;;;16.97;77.18
70011;BME280;59543;37.950;-122.338;2022-09-12T07:53:34;101398.94;;;17.04;77.40
70011;BME280;59543;37.950;-122.338;2022-09-12T07:56:00;101403.41;;;16.97;77.66
70011;BME280;59543;37.950;-122.338;2022-09-12T07:58:29;101402.56;;;16.88;78.00
70011;BME280;59543;37.950;-122.338;2022-09-12T08:01:03;101405.25;;;16.97;77.68
70011;BME280;59543;37.950;-122.338;2022-09-12T08:03:29;101407.91;;;17.13;77.34
70011;BME280;59543;37.950;-122.338;2022-09-12T08:06:09;101405.00;;;17.14;76.83
70011;BME280;59543;37.950;-122.338;2022-09-12T08:08:36;101403.47;;;17.20;76.50
70011;BME280;59543;37.950;-122.338;2022-09-12T08:11:09;101396.78;;;16.91;78.22
70011;BME280;59543;37.950;-122.338;2022-09-12T08:13:37;101408.41;;;17.17;77.26
70011;BME280;59543;37.950;-122.338;2022-09-12T08:16:06;101406.88;;;17.14;76.80
70011;BME280;59543;37.950;-122.338;2022-09-12T08:18:34;101402.34;;;17.06;77.22
70011;BME280;59543;37.950;-122.338;2022-09-12T08:21:04;101401.50;;;17.06;77.39
70011;BME280;59543;37.950;-122.338;2022-09-12T08:23:31;101393.84;;;17.01;77.34
70011;BME280;59543;37.950;-122.338;2022-09-12T08:25:59;101391.00;;;16.95;77.72
70011;BME280;59543;37.950;-122.338;2022-09-12T08:28:26;101392.34;;;16.99;77.42
70011;BME280;59543;37.950;-122.338;2022-09-12T08:30:53;101382.13;;;17.09;77.14
70011;BME280;59543;37.950;-122.338;2022-09-12T08:33:20;101389.25;;;17.10;77.20
70011;BME280;59543;37.950;-122.338;2022-09-12T08:35:47;101384.16;;;17.07;77.32
70011;BME280;59543;37.950;-122.338;2022-09-12T08:38:13;101383.16;;;17.00;77.60
70011;BME280;59543;37.950;-122.338;2022-09-12T08:41:04;101374.47;;;17.04;77.81
70011;BME280;59543;37.950;-122.338;2022-09-12T08:43:42;101372.47;;;16.90;78.29
70011;BME280;59543;37.950;-122.338;2022-09-12T08:46:21;101380.69;;;16.82;78.11
70011;BME280;59543;37.950;-122.338;2022-09-12T08:48:48;101370.44;;;16.92;78.28
70011;BME280;59543;37.950;-122.338;2022-09-12T08:51:16;101372.34;;;16.83;78.35
70011;BME280;59543;37.950;-122.338;2022-09-12T08:53:46;101369.47;;;16.85;78.11
70011;BME280;59543;37.950;-122.338;2022-09-12T08:56:14;101368.47;;;16.61;78.94
70011;BME280;59543;37.950;-122.338;2022-09-12T08:58:43;101367.78;;;16.59;79.01
70011;BME280;59543;37.950;-122.338;2022-09-12T09:01:14;101367.81;;;16.76;78.72
70011;BME280;59543;37.950;-122.338;2022-09-12T09:09:26;101360.31;;;16.78;79.02
70011;BME280;59543;37.950;-122.338;2022-09-12T09:12:18;101357.44;;;16.79;79.02
70011;BME280;59543;37.950;-122.338;2022-09-12T09:14:57;101356.94;;;16.76;79.11
70011;BME280;59543;37.950;-122.338;2022-09-12T09:17:40;101353.16;;;16.68;79.43
70011;BME280;59543;37.950;-122.338;2022-09-12T09:20:25;101344.53;;;16.65;79.32
70011;BME280;59543;37.950;-122.338;2022-09-12T09:25:57;101349.63;;;16.60;79.73
70011;BME280;59543;37.950;-122.338;2022-09-12T09:30:57;101343.00;;;16.62;79.33
70011;BME280;59543;37.950;-122.338;2022-09-12T09:33:27;101334.50;;;16.65;79.16
70011;BME280;59543;37.950;-122.338;2022-09-12T09:44:36;101335.75;;;16.55;79.44
70011;BME280;59543;37.950;-122.338;2022-09-12T09:47:03;101331.97;;;16.64;79.14
70011;BME280;59543;37.950;-122.338;2022-09-12T09:49:33;101333.50;;;16.58;79.29
70011;BME280;59543;37.950;-122.338;2022-09-12T09:52:02;101327.06;;;16.59;79.04
70011;BME280;59543;37.950;-122.338;2022-09-12T09:55:02;101330.09;;;16.64;78.86
70011;BME280;59543;37.950;-122.338;2022-09-12T10:03:00;101326.84;;;16.69;79.21
70011;BME280;59543;37.950;-122.338;2022-09-12T10:05:33;101334.16;;;16.60;79.16
70011;BME280;59543;37.950;-122.338;2022-09-12T10:08:01;101332.81;;;16.64;79.05
70011;BME280;59543;37.950;-122.338;2022-09-12T10:10:28;101336.22;;;16.58;79.33
70011;BME280;59543;37.950;-122.338;2022-09-12T10:13:18;101331.84;;;16.49;79.56
70011;BME280;59543;37.950;-122.338;2022-09-12T10:16:15;101336.22;;;16.58;79.20
70011;BME280;59543;37.950;-122.338;2022-09-12T10:18:43;101336.09;;;16.52;79.67
70011;BME280;59543;37.950;-122.338;2022-09-12T10:21:15;101342.72;;;16.49;79.65
70011;BME280;59543;37.950;-122.338;2022-09-12T10:23:44;101339.50;;;16.37;80.25
70011;BME280;59543;37.950;-122.338;2022-09-12T10:26:13;101330.47;;;16.45;79.96
70011;BME280;59543;37.950;-122.338;2022-09-12T10:31:32;101336.25;;;16.42;79.95
70011;BME280;59543;37.950;-122.338;2022-09-12T10:34:04;101335.06;;;16.44;80.03
70011;BME280;59543;37.950;-122.338;2022-09-12T10:36:37;101340.97;;;16.56;78.92
70011;BME280;59543;37.950;-122.338;2022-09-12T10:39:05;101338.97;;;16.42;79.16
70011;BME280;59543;37.950;-122.338;2022-09-12T10:41:37;101337.09;;;16.42;79.30
70011;BME280;59543;37.950;-122.338;2022-09-12T10:44:22;101335.75;;;16.46;79.08
70011;BME280;59543;37.950;-122.338;2022-09-12T10:46:51;101337.22;;;16.57;78.72
70011;BME280;59543;37.950;-122.338;2022-09-12T10:49:31;101329.28;;;16.39;79.30
70011;BME280;59543;37.950;-122.338;2022-09-12T10:52:23;101327.59;;;16.46;79.25
70011;BME280;59543;37.950;-122.338;2022-09-12T10:54:50;101320.78;;;16.51;78.91
70011;BME280;59543;37.950;-122.338;2022-09-12T11:00:14;101318.41;;;16.48;79.08
70011;BME280;59543;37.950;-122.338;2022-09-12T11:03:31;101326.78;;;16.30;80.24
70011;BME280;59543;37.950;-122.338;2022-09-12T11:05:59;101327.44;;;16.40;79.37
70011;BME280;59543;37.950;-122.338;2022-09-12T11:11:10;101322.19;;;16.38;79.46
70011;BME280;59543;37.950;-122.338;2022-09-12T11:14:04;101326.06;;;16.44;79.21
70011;BME280;59543;37.950;-122.338;2022-09-12T11:20:07;101324.41;;;16.18;80.16
70011;BME280;59543;37.950;-122.338;2022-09-12T11:23:13;101316.94;;;16.29;79.34
70011;BME280;59543;37.950;-122.338;2022-09-12T11:29:12;101321.19;;;16.15;80.28
70011;BME280;59543;37.950;-122.338;2022-09-12T11:36:22;101314.56;;;16.26;80.19
70011;BME280;59543;37.950;-122.338;2022-09-12T11:41:38;101304.72;;;16.33;79.75
70011;BME280;59543;37.950;-122.338;2022-09-12T11:44:22;101311.84;;;16.26;79.74
70011;BME280;59543;37.950;-122.338;2022-09-12T11:46:49;101306.94;;;16.29;79.67
70011;BME280;59543;37.950;-122.338;2022-09-12T11:49:30;101307.47;;;16.25;80.12
70011;BME280;59543;37.950;-122.338;2022-09-12T12:00:04;101306.78;;;16.22;80.13
70011;BME280;59543;37.950;-122.338;2022-09-12T12:06:16;101307.97;;;16.28;80.40
70011;BME280;59543;37.950;-122.338;2022-09-12T12:08:47;101309.84;;;16.28;80.30
70011;BME280;59543;37.950;-122.338;2022-09-12T12:11:32;101309.59;;;16.45;79.09
70011;BME280;59543;37.950;-122.338;2022-09-12T12:14:21;101315.22;;;16.36;79.23
70011;BME280;59543;37.950;-122.338;2022-09-12T12:16:49;101310.69;;;16.20;80.56
70011;BME280;59543;37.950;-122.338;2022-09-12T12:21:48;101302.38;;;16.13;80.55
70011;BME280;59543;37.950;-122.338;2022-09-12T12:34:41;101300.69;;;15.88;81.81
70011;BME280;59543;37.950;-122.338;2022-09-12T12:39:55;101299.53;;;15.74;82.33
70011;BME280;59543;37.950;-122.338;2022-09-12T12:47:51;101297.66;;;15.83;81.92
70011;BME280;59543;37.950;-122.338;2022-09-12T12:55:38;101297.13;;;15.79;82.23
70011;BME280;59543;37.950;-122.338;2022-09-12T13:03:33;101301.38;;;15.90;82.16
70011;BME280;59543;37.950;-122.338;2022-09-12T13:06:04;101298.16;;;15.78;82.56
70011;BME280;59543;37.950;-122.338;2022-09-12T13:08:45;101299.19;;;15.77;82.25
70011;BME280;59543;37.950;-122.338;2022-09-12T13:11:39;101299.69;;;15.81;82.25
70011;BME280;59543;37.950;-122.338;2022-09-12T13:20:01;101303.41;;;15.96;81.90
70011;BME280;59543;37.950;-122.338;2022-09-12T13:22:39;101301.22;;;15.83;82.05
70011;BME280;59543;37.950;-122.338;2022-09-12T13:25:39;101303.09;;;15.83;82.20
70011;BME280;59543;37.950;-122.338;2022-09-12T13:30:39;101311.03;;;15.84;81.94
70011;BME280;59543;37.950;-122.338;2022-09-12T13:33:17;101300.53;;;15.81;82.06
70011;BME280;59543;37.950;-122.338;2022-09-12T13:38:53;101299.69;;;15.81;82.10
70011;BME280;59543;37.950;-122.338;2022-09-12T13:44:23;101304.25;;;15.88;82.42
70011;BME280;59543;37.950;-122.338;2022-09-12T13:46:51;101309.84;;;15.78;82.64
70011;BME280;59543;37.950;-122.338;2022-09-12T13:49:47;101303.09;;;15.83;82.14
70011;BME280;59543;37.950;-122.338;2022-09-12T13:52:20;101304.09;;;15.82;82.02
70011;BME280;59543;37.950;-122.338;2022-09-12T13:54:52;101302.56;;;15.79;82.33
70011;BME280;59543;37.950;-122.338;2022-09-12T13:59:54;101310.19;;;15.84;82.00
70011;BME280;59543;37.950;-122.338;2022-09-12T14:02:23;101312.25;;;15.98;81.64
70011;BME280;59543;37.950;-122.338;2022-09-12T14:04:52;101319.88;;;15.86;81.73
70011;BME280;59543;37.950;-122.338;2022-09-12T14:07:48;101320.72;;;15.87;81.89
70011;BME280;59543;37.950;-122.338;2022-09-12T14:10:37;101320.03;;;15.85;82.12
70011;BME280;59543;37.950;-122.338;2022-09-12T14:13:15;101311.69;;;15.94;81.71
70011;BME280;59543;37.950;-122.338;2022-09-12T14:15:46;101315.28;;;15.95;81.59
70011;BME280;59543;37.950;-122.338;2022-09-12T14:18:27;101328.53;;;15.98;81.31
70011;BME280;59543;37.950;-122.338;2022-09-12T14:20:55;101327.13;;;15.94;81.54
70011;BME280;59543;37.950;-122.338;2022-09-12T14:23:30;101331.72;;;16.10;81.28
70011;BME280;59543;37.950;-122.338;2022-09-12T14:26:01;101330.72;;;16.11;81.42
70011;BME280;59543;37.950;-122.338;2022-09-12T14:28:29;101331.72;;;16.18;81.05
70011;BME280;59543;37.950;-122.338;2022-09-12T14:33:55;101335.59;;;16.32;80.43
70011;BME280;59543;37.950;-122.338;2022-09-12T14:36:39;101335.94;;;16.29;80.68
70011;BME280;59543;37.950;-122.338;2022-09-12T14:41:49;101337.13;;;16.34;80.91
70011;BME280;59543;37.950;-122.338;2022-09-12T14:44:19;101335.25;;;16.35;80.87
70011;BME280;59543;37.950;-122.338;2022-09-12T14:46:48;101330.50;;;16.37;80.75
70011;BME280;59543;37.950;-122.338;2022-09-12T14:49:24;101338.81;;;16.43;80.35
70011;BME280;59543;37.950;-122.338;2022-09-12T14:51:55;101332.50;;;16.51;80.49
70011;BME280;59543;37.950;-122.338;2022-09-12T14:56:57;101332.81;;;16.64;79.41
70011;BME280;59543;37.950;-122.338;2022-09-12T15:08:00;101316.81;;;16.69;79.07
70011;BME280;59543;37.950;-122.338;2022-09-12T15:10:34;101328.31;;;16.96;78.23
70011;BME280;59543;37.950;-122.338;2022-09-12T15:13:11;101326.25;;;16.98;78.50
70011;BME280;59543;37.950;-122.338;2022-09-12T15:15:43;101329.50;;;16.94;78.14
70011;BME280;59543;37.950;-122.338;2022-09-12T15:18:10;101332.88;;;16.96;77.67
70011;BME280;59543;37.950;-122.338;2022-09-12T15:20:38;101330.38;;;16.94;77.74
70011;BME280;59543;37.950;-122.338;2022-09-12T15:23:11;101325.22;;;16.99;77.45
70011;BME280;59543;37.950;-122.338;2022-09-12T15:25:39;101336.09;;;16.99;77.39
70011;BME280;59543;37.950;-122.338;2022-09-12T15:28:15;101333.69;;;17.12;77.18
70011;BME280;59543;37.950;-122.338;2022-09-12T15:30:42;101334.13;;;17.24;76.62
70011;BME280;59543;37.950;-122.338;2022-09-12T15:33:10;101332.34;;;17.40;76.27
70011;BME280;59543;37.950;-122.338;2022-09-12T15:35:37;101338.97;;;17.37;76.43
70011;BME280;59543;37.950;-122.338;2022-09-12T15:38:04;101339.28;;;17.42;75.98